sensor_id;sensor_type;location;lat;lon;timestamp;P1;durP1;ratioP1;P2;durP2;ratioP2
32501;SDS011;18952;52.516;13.460;2023-05-19T00:00:22;14.48;;;3.80;;
32501;SDS011;18952;52.516;13.460;2023-05-19T00:02:49;16.63;;;2.92;;
32501;SDS011;18952;52.516;13.460;2023-05-19T00:05:18;13.07;;;3.10;;
32501;SDS011;18952;52.516;13.460;2023-05-19T00:07:45;13.95;;;3.00;;
32501;SDS011;18952;52.516;13.460;2023-05-19T00:10:16;6.68;;;2.70;;
32501;SDS011;18952;52.516;13.460;2023-05-19T00:12:43;9.82;;;3.22;;
32501;SDS011;18952;52.516;13.460;2023-05-19T00:15:12;7.88;;;2.92;;
32501;SDS011;18952;52.516;13.460;2023-05-19T00:17:40;19.75;;;3.38;;
32501;SDS011;18952;52.516;13.460;2023-05-19T00:20:12;6.70;;;2.50;;
32501;SDS011;18952;52.516;13.460;2023-05-19T00:22:41;9.35;;;3.47;;
32501;SDS011;18952;52.516;13.460;2023-05-19T00:25:08;10.75;;;3.20;;
32501;SDS011;18952;52.516;13.460;2023-05-19T00:27:37;8.25;;;2.97;;
32501;SDS011;18952;52.516;13.460;2023-05-19T00:30:09;10.65;;;3.25;;
32501;SDS011;18952;52.516;13.460;2023-05-19T00:32:36;13.60;;;3.22;;
32501;SDS011;18952;52.516;13.460;2023-05-19T00:35:06;6.90;;;3.03;;
32501;SDS011;18952;52.516;13.460;2023-05-19T00:37:33;8.77;;;2.80;;
32501;SDS011;18952;52.516;13.460;2023-05-19T00:40:00;10.75;;;3.10;;
32501;SDS011;18952;52.516;13.460;2023-05-19T00:42:27;9.68;;;3.88;;
32501;SDS011;18952;52.516;13.460;2023-05-19T00:44:54;9.95;;;3.13;;
32501;SDS011;18952;52.516;13.460;2023-05-19T00:47:21;10.68;;;3.25;;
32501;SDS011;18952;52.516;13.460;2023-05-19T00:49:49;8.93;;;3.38;;
32501;SDS011;18952;52.516;13.460;2023-05-19T00:52:16;11.98;;;2.95;;
32501;SDS011;18952;52.516;13.460;2023-05-19T00:54:45;12.57;;;5.20;;
32501;SDS011;18952;52.516;13.460;2023-05-19T00:57:15;16.85;;;4.82;;
32501;SDS011;18952;52.516;13.460;2023-05-19T00:59:42;19.58;;;10.32;;
32501;SDS011;18952;52.516;13.460;2023-05-19T01:02:10;23.27;;;5.78;;
32501;SDS011;18952;52.516;13.460;2023-05-19T01:04:37;18.80;;;5.93;;
32501;SDS011;18952;52.516;13.460;2023-05-19T01:07:06;13.43;;;5.32;;
32501;SDS011;18952;52.516;13.460;2023-05-19T01:09:33;11.38;;;3.05;;
32501;SDS011;18952;52.516;13.460;2023-05-19T01:12:00;8.55;;;2.90;;
32501;SDS011;18952;52.516;13.460;2023-05-19T01:14:27;10.27;;;3.92;;
32501;SDS011;18952;52.516;13.460;2023-05-19T01:19:46;8.98;;;3.03;;
32501;SDS011;18952;52.516;13.460;2023-05-19T01:25:07;9.93;;;2.75;;
32501;SDS011;18952;52.516;13.460;2023-05-19T01:31:00;8.43;;;2.75;;
32501;SDS011;18952;52.516;13.460;2023-05-19T01:33:28;13.07;;;3.10;;
32501;SDS011;18952;52.516;13.460;2023-05-19T01:35:56;9.32;;;2.88;;
32501;SDS011;18952;52.516;13.460;2023-05-19T01:38:25;8.43;;;2.78;;
32501;SDS011;18952;52.516;13.460;2023-05-19T01:40:56;17.58;;;3.20;;
32501;SDS011;18952;52.516;13.460;2023-05-19T01:43:24;8.05;;;2.85;;
32501;SDS011;18952;52.516;13.460;2023-05-19T01:45:53;14.10;;;3.00;;
32501;SDS011;18952;52.516;13.460;2023-05-19T01:48:21;7.78;;;3.13;;
32501;SDS011;18952;52.516;13.460;2023-05-19T01:50:54;8.32;;;2.70;;
32501;SDS011;18952;52.516;13.460;2023-05-19T01:53:24;8.13;;;2.70;;
32501;SDS011;18952;52.516;13.460;2023-05-19T01:55:56;9.32;;;2.78;;
32501;SDS011;18952;52.516;13.460;2023-05-19T02:01:29;9.40;;;2.75;;
32501;SDS011;18952;52.516;13.460;2023-05-19T02:09:48;14.93;;;2.80;;
32501;SDS011;18952;52.516;13.460;2023-05-19T02:12:39;12.57;;;2.78;;
32501;SDS011;18952;52.516;13.460;2023-05-19T02:15:23;7.07;;;2.53;;
32501;SDS011;18952;52.516;13.460;2023-05-19T02:17:53;11.65;;;2.90;;
32501;SDS011;18952;52.516;13.460;2023-05-19T02:20:21;6.70;;;2.72;;
32501;SDS011;18952;52.516;13.460;2023-05-19T02:22:48;13.52;;;2.45;;
32501;SDS011;18952;52.516;13.460;2023-05-19T02:25:17;8.13;;;2.33;;
32501;SDS011;18952;52.516;13.460;2023-05-19T02:27:46;5.25;;;2.42;;
32501;SDS011;18952;52.516;13.460;2023-05-19T02:30:13;13.88;;;3.08;;
32501;SDS011;18952;52.516;13.460;2023-05-19T02:32:40;8.13;;;2.58;;
32501;SDS011;18952;52.516;13.460;2023-05-19T02:35:07;9.77;;;3.28;;
32501;SDS011;18952;52.516;13.460;2023-05-19T02:37:34;6.82;;;2.42;;
32501;SDS011;18952;52.516;13.460;2023-05-19T02:40:01;8.68;;;2.90;;
32501;SDS011;18952;52.516;13.460;2023-05-19T02:42:28;7.60;;;3.25;;
32501;SDS011;18952;52.516;13.460;2023-05-19T02:44:55;7.43;;;3.03;;
32501;SDS011;18952;52.516;13.460;2023-05-19T02:47:22;10.43;;;2.80;;
32501;SDS011;18952;52.516;13.460;2023-05-19T02:49:50;7.72;;;2.85;;
32501;SDS011;18952;52.516;13.460;2023-05-19T02:52:17;7.38;;;2.72;;
32501;SDS011;18952;52.516;13.460;2023-05-19T02:54:45;11.82;;;2.70;;
32501;SDS011;18952;52.516;13.460;2023-05-19T02:57:17;5.45;;;2.50;;
32501;SDS011;18952;52.516;13.460;2023-05-19T02:59:44;6.78;;;2.40;;
32501;SDS011;18952;52.516;13.460;2023-05-19T03:02:11;12.85;;;3.00;;
32501;SDS011;18952;52.516;13.460;2023-05-19T03:04:38;13.95;;;2.60;;
32501;SDS011;18952;52.516;13.460;2023-05-19T03:07:05;11.20;;;3.10;;
32501;SDS011;18952;52.516;13.460;2023-05-19T03:09:33;9.15;;;2.45;;
32501;SDS011;18952;52.516;13.460;2023-05-19T03:11:59;7.82;;;2.45;;
32501;SDS011;18952;52.516;13.460;2023-05-19T03:14:26;7.07;;;2.83;;
32501;SDS011;18952;52.516;13.460;2023-05-19T03:16:53;10.02;;;2.85;;
32501;SDS011;18952;52.516;13.460;2023-05-19T03:19:20;10.23;;;2.67;;
32501;SDS011;18952;52.516;13.460;2023-05-19T03:21:49;7.50;;;2.60;;
32501;SDS011;18952;52.516;13.460;2023-05-19T03:24:17;7.03;;;2.65;;
32501;SDS011;18952;52.516;13.460;2023-05-19T03:26:45;9.13;;;2.83;;
32501;SDS011;18952;52.516;13.460;2023-05-19T03:29:13;7.47;;;2.63;;
32501;SDS011;18952;52.516;13.460;2023-05-19T03:31:40;9.73;;;2.67;;
32501;SDS011;18952;52.516;13.460;2023-05-19T03:34:07;8.70;;;3.05;;
32501;SDS011;18952;52.516;13.460;2023-05-19T03:36:36;5.38;;;2.70;;
32501;SDS011;18952;52.516;13.460;2023-05-19T03:39:02;8.07;;;2.78;;
32501;SDS011;18952;52.516;13.460;2023-05-19T03:41:30;10.75;;;2.97;;
32501;SDS011;18952;52.516;13.460;2023-05-19T03:43:56;7.85;;;2.60;;
32501;SDS011;18952;52.516;13.460;2023-05-19T03:46:23;11.60;;;2.95;;
32501;SDS011;18952;52.516;13.460;2023-05-19T03:48:50;13.45;;;4.40;;
32501;SDS011;18952;52.516;13.460;2023-05-19T03:51:19;10.02;;;3.40;;
32501;SDS011;18952;52.516;13.460;2023-05-19T03:53:45;14.93;;;3.80;;
32501;SDS011;18952;52.516;13.460;2023-05-19T03:56:12;10.82;;;3.17;;
32501;SDS011;18952;52.516;13.460;2023-05-19T03:58:40;9.57;;;2.83;;
32501;SDS011;18952;52.516;13.460;2023-05-19T04:01:09;7.35;;;2.80;;
32501;SDS011;18952;52.516;13.460;2023-05-19T04:03:42;13.98;;;2.65;;
32501;SDS011;18952;52.516;13.460;2023-05-19T04:06:10;7.30;;;2.70;;
32501;SDS011;18952;52.516;13.460;2023-05-19T04:08:38;12.02;;;2.95;;
32501;SDS011;18952;52.516;13.460;2023-05-19T04:11:05;7.80;;;2.78;;
32501;SDS011;18952;52.516;13.460;2023-05-19T04:13:32;8.68;;;3.10;;
32501;SDS011;18952;52.516;13.460;2023-05-19T04:16:00;7.78;;;2.90;;
32501;SDS011;18952;52.516;13.460;2023-05-19T04:18:27;7.80;;;3.08;;
32501;SDS011;18952;52.516;13.460;2023-05-19T04:20:54;8.02;;;3.00;;
32501;SDS011;18952;52.516;13.460;2023-05-19T04:23:22;8.18;;;3.10;;
32501;SDS011;18952;52.516;13.460;2023-05-19T04:25:49;7.93;;;3.33;;
32501;SDS011;18952;52.516;13.460;2023-05-19T04:28:17;9.82;;;3.55;;
32501;SDS011;18952;52.516;13.460;2023-05-19T04:30:46;8.25;;;3.08;;
32501;SDS011;18952;52.516;13.460;2023-05-19T04:33:14;10.18;;;3.53;;
32501;SDS011;18952;52.516;13.460;2023-05-19T04:35:42;8.88;;;3.63;;
32501;SDS011;18952;52.516;13.460;2023-05-19T04:38:11;9.63;;;3.60;;
32501;SDS011;18952;52.516;13.460;2023-05-19T04:40:39;9.70;;;3.55;;
32501;SDS011;18952;52.516;13.460;2023-05-19T04:43:08;11.20;;;3.30;;
32501;SDS011;18952;52.516;13.460;2023-05-19T04:45:41;14.20;;;4.78;;
32501;SDS011;18952;52.516;13.460;2023-05-19T04:48:08;11.82;;;4.00;;
32501;SDS011;18952;52.516;13.460;2023-05-19T04:50:38;14.38;;;3.80;;
32501;SDS011;18952;52.516;13.460;2023-05-19T04:53:09;9.77;;;3.45;;
32501;SDS011;18952;52.516;13.460;2023-05-19T04:55:39;10.82;;;3.58;;
32501;SDS011;18952;52.516;13.460;2023-05-19T04:58:06;13.55;;;3.40;;
32501;SDS011;18952;52.516;13.460;2023-05-19T05:00:33;15.90;;;3.40;;
32501;SDS011;18952;52.516;13.460;2023-05-19T05:03:00;11.35;;;3.65;;
32501;SDS011;18952;52.516;13.460;2023-05-19T05:05:27;14.80;;;3.70;;
32501;SDS011;18952;52.516;13.460;2023-05-19T05:07:54;10.15;;;3.80;;
32501;SDS011;18952;52.516;13.460;2023-05-19T05:10:21;9.20;;;3.40;;
32501;SDS011;18952;52.516;13.460;2023-05-19T05:12:48;8.27;;;3.08;;
32501;SDS011;18952;52.516;13.460;2023-05-19T05:15:18;12.52;;;3.83;;
32501;SDS011;18952;52.516;13.460;2023-05-19T05:17:47;15.95;;;3.88;;
32501;SDS011;18952;52.516;13.460;2023-05-19T05:20:16;13.23;;;3.88;;
32501;SDS011;18952;52.516;13.460;2023-05-19T05:22:44;11.98;;;4.05;;
32501;SDS011;18952;52.516;13.460;2023-05-19T05:25:12;8.05;;;3.30;;
32501;SDS011;18952;52.516;13.460;2023-05-19T05:27:41;7.20;;;3.22;;
32501;SDS011;18952;52.516;13.460;2023-05-19T05:30:08;12.57;;;3.50;;
32501;SDS011;18952;52.516;13.460;2023-05-19T05:32:37;8.40;;;3.22;;
32501;SDS011;18952;52.516;13.460;2023-05-19T05:35:04;6.88;;;3.28;;
32501;SDS011;18952;52.516;13.460;2023-05-19T05:37:33;9.90;;;3.22;;
32501;SDS011;18952;52.516;13.460;2023-05-19T05:40:00;13.75;;;4.40;;
32501;SDS011;18952;52.516;13.460;2023-05-19T05:42:27;13.70;;;4.40;;
32501;SDS011;18952;52.516;13.460;2023-05-19T05:44:56;8.02;;;3.53;;
32501;SDS011;18952;52.516;13.460;2023-05-19T05:47:36;10.65;;;4.45;;
32501;SDS011;18952;52.516;13.460;2023-05-19T05:50:04;13.30;;;4.43;;
32501;SDS011;18952;52.516;13.460;2023-05-19T05:52:36;11.85;;;3.83;;
32501;SDS011;18952;52.516;13.460;2023-05-19T05:55:06;7.78;;;3.58;;
32501;SDS011;18952;52.516;13.460;2023-05-19T05:57:42;15.48;;;4.03;;
32501;SDS011;18952;52.516;13.460;2023-05-19T06:00:09;12.65;;;3.80;;
32501;SDS011;18952;52.516;13.460;2023-05-19T06:02:36;9.15;;;3.58;;
32501;SDS011;18952;52.516;13.460;2023-05-19T06:05:03;10.93;;;4.10;;
32501;SDS011;18952;52.516;13.460;2023-05-19T06:07:30;11.43;;;3.67;;
32501;SDS011;18952;52.516;13.460;2023-05-19T06:09:57;10.98;;;3.45;;
32501;SDS011;18952;52.516;13.460;2023-05-19T06:12:24;6.35;;;3.63;;
32501;SDS011;18952;52.516;13.460;2023-05-19T06:14:54;12.00;;;3.92;;
32501;SDS011;18952;52.516;13.460;2023-05-19T06:17:23;5.60;;;3.30;;
32501;SDS011;18952;52.516;13.460;2023-05-19T06:19:51;7.57;;;3.40;;
32501;SDS011;18952;52.516;13.460;2023-05-19T06:22:17;26.30;;;5.90;;
32501;SDS011;18952;52.516;13.460;2023-05-19T06:24:46;12.25;;;3.72;;
32501;SDS011;18952;52.516;13.460;2023-05-19T06:27:15;7.25;;;3.63;;
32501;SDS011;18952;52.516;13.460;2023-05-19T06:29:42;15.48;;;3.65;;
32501;SDS011;18952;52.516;13.460;2023-05-19T06:32:10;10.20;;;4.10;;
32501;SDS011;18952;52.516;13.460;2023-05-19T06:34:37;11.20;;;3.83;;
32501;SDS011;18952;52.516;13.460;2023-05-19T06:37:04;16.98;;;4.10;;
32501;SDS011;18952;52.516;13.460;2023-05-19T06:39:32;8.60;;;3.65;;
32501;SDS011;18952;52.516;13.460;2023-05-19T06:42:03;11.15;;;3.88;;
32501;SDS011;18952;52.516;13.460;2023-05-19T06:44:30;8.45;;;3.72;;
32501;SDS011;18952;52.516;13.460;2023-05-19T06:46:57;7.82;;;4.22;;
32501;SDS011;18952;52.516;13.460;2023-05-19T06:49:24;12.25;;;4.05;;
32501;SDS011;18952;52.516;13.460;2023-05-19T06:51:51;12.43;;;5.00;;
32501;SDS011;18952;52.516;13.460;2023-05-19T06:54:19;11.35;;;4.05;;
32501;SDS011;18952;52.516;13.460;2023-05-19T06:56:46;10.75;;;4.50;;
32501;SDS011;18952;52.516;13.460;2023-05-19T06:59:14;9.60;;;4.30;;
32501;SDS011;18952;52.516;13.460;2023-05-19T07:01:42;12.38;;;4.65;;
32501;SDS011;18952;52.516;13.460;2023-05-19T07:04:09;9.15;;;3.80;;
32501;SDS011;18952;52.516;13.460;2023-05-19T07:06:36;15.90;;;3.78;;
32501;SDS011;18952;52.516;13.460;2023-05-19T07:09:03;10.18;;;3.72;;
32501;SDS011;18952;52.516;13.460;2023-05-19T07:11:32;12.23;;;4.50;;
32501;SDS011;18952;52.516;13.460;2023-05-19T07:14:00;7.70;;;3.67;;
32501;SDS011;18952;52.516;13.460;2023-05-19T07:16:27;12.65;;;4.03;;
32501;SDS011;18952;52.516;13.460;2023-05-19T07:18:54;10.98;;;3.80;;
32501;SDS011;18952;52.516;13.460;2023-05-19T07:21:21;9.10;;;3.05;;
32501;SDS011;18952;52.516;13.460;2023-05-19T07:23:49;7.72;;;3.38;;
32501;SDS011;18952;52.516;13.460;2023-05-19T07:26:18;11.13;;;3.78;;
32501;SDS011;18952;52.516;13.460;2023-05-19T07:28:45;11.45;;;3.50;;
32501;SDS011;18952;52.516;13.460;2023-05-19T07:31:12;9.07;;;3.67;;
32501;SDS011;18952;52.516;13.460;2023-05-19T07:33:39;8.30;;;3.70;;
32501;SDS011;18952;52.516;13.460;2023-05-19T07:36:06;12.35;;;4.07;;
32501;SDS011;18952;52.516;13.460;2023-05-19T07:38:33;11.98;;;3.67;;
32501;SDS011;18952;52.516;13.460;2023-05-19T07:41:00;8.15;;;3.40;;
32501;SDS011;18952;52.516;13.460;2023-05-19T07:43:28;5.97;;;3.47;;
32501;SDS011;18952;52.516;13.460;2023-05-19T07:45:55;9.52;;;4.13;;
32501;SDS011;18952;52.516;13.460;2023-05-19T07:48:22;8.52;;;3.60;;
32501;SDS011;18952;52.516;13.460;2023-05-19T07:50:50;8.90;;;3.72;;
32501;SDS011;18952;52.516;13.460;2023-05-19T07:53:20;13.15;;;3.47;;
32501;SDS011;18952;52.516;13.460;2023-05-19T07:55:49;5.63;;;3.50;;
32501;SDS011;18952;52.516;13.460;2023-05-19T07:58:18;10.43;;;4.00;;
32501;SDS011;18952;52.516;13.460;2023-05-19T08:00:45;9.15;;;3.85;;
32501;SDS011;18952;52.516;13.460;2023-05-19T08:03:12;7.30;;;3.70;;
32501;SDS011;18952;52.516;13.460;2023-05-19T08:05:39;8.05;;;3.90;;
32501;SDS011;18952;52.516;13.460;2023-05-19T08:08:06;14.43;;;8.60;;
32501;SDS011;18952;52.516;13.460;2023-05-19T08:10:33;7.70;;;4.03;;
32501;SDS011;18952;52.516;13.460;2023-05-19T08:13:00;6.88;;;3.53;;
32501;SDS011;18952;52.516;13.460;2023-05-19T08:15:27;10.13;;;3.80;;
32501;SDS011;18952;52.516;13.460;2023-05-19T08:17:55;9.80;;;4.57;;
32501;SDS011;18952;52.516;13.460;2023-05-19T08:20:22;10.57;;;3.67;;
32501;SDS011;18952;52.516;13.460;2023-05-19T08:22:50;12.73;;;4.15;;
32501;SDS011;18952;52.516;13.460;2023-05-19T08:25:17;7.90;;;3.80;;
32501;SDS011;18952;52.516;13.460;2023-05-19T08:27:44;7.18;;;3.92;;
32501;SDS011;18952;52.516;13.460;2023-05-19T08:30:11;6.50;;;3.60;;
32501;SDS011;18952;52.516;13.460;2023-05-19T08:32:38;11.38;;;3.70;;
32501;SDS011;18952;52.516;13.460;2023-05-19T08:35:05;8.88;;;3.25;;
32501;SDS011;18952;52.516;13.460;2023-05-19T08:37:33;6.47;;;3.42;;
32501;SDS011;18952;52.516;13.460;2023-05-19T08:39:59;6.03;;;3.35;;
32501;SDS011;18952;52.516;13.460;2023-05-19T08:42:26;5.88;;;3.10;;
32501;SDS011;18952;52.516;13.460;2023-05-19T08:44:53;5.13;;;3.25;;
32501;SDS011;18952;52.516;13.460;2023-05-19T08:47:20;10.52;;;3.50;;
32501;SDS011;18952;52.516;13.460;2023-05-19T08:49:51;6.53;;;2.83;;
32501;SDS011;18952;52.516;13.460;2023-05-19T08:54:54;6.40;;;2.92;;
32501;SDS011;18952;52.516;13.460;2023-05-19T08:57:28;4.63;;;2.75;;
32501;SDS011;18952;52.516;13.460;2023-05-19T08:59:55;5.80;;;2.60;;
32501;SDS011;18952;52.516;13.460;2023-05-19T09:02:26;10.43;;;2.83;;
32501;SDS011;18952;52.516;13.460;2023-05-19T09:04:53;5.57;;;3.53;;
32501;SDS011;18952;52.516;13.460;2023-05-19T09:07:22;9.48;;;3.15;;
32501;SDS011;18952;52.516;13.460;2023-05-19T09:09:54;6.88;;;3.08;;
32501;SDS011;18952;52.516;13.460;2023-05-19T09:12:21;5.80;;;2.90;;
32501;SDS011;18952;52.516;13.460;2023-05-19T09:14:50;3.70;;;2.30;;
32501;SDS011;18952;52.516;13.460;2023-05-19T09:17:22;6.78;;;2.40;;
32501;SDS011;18952;52.516;13.460;2023-05-19T09:19:50;5.65;;;2.83;;
32501;SDS011;18952;52.516;13.460;2023-05-19T09:22:21;8.02;;;2.15;;
32501;SDS011;18952;52.516;13.460;2023-05-19T09:24:49;4.75;;;2.33;;
32501;SDS011;18952;52.516;13.460;2023-05-19T09:27:23;3.08;;;1.98;;
32501;SDS011;18952;52.516;13.460;2023-05-19T09:29:51;6.72;;;2.28;;
32501;SDS011;18952;52.516;13.460;2023-05-19T09:32:24;8.32;;;2.22;;
32501;SDS011;18952;52.516;13.460;2023-05-19T09:34:52;5.55;;;1.98;;
32501;SDS011;18952;52.516;13.460;2023-05-19T09:37:22;3.78;;;1.83;;
32501;SDS011;18952;52.516;13.460;2023-05-19T09:39:49;5.30;;;2.30;;
32501;SDS011;18952;52.516;13.460;2023-05-19T09:42:22;6.00;;;2.60;;
32501;SDS011;18952;52.516;13.460;2023-05-19T09:44:57;3.67;;;1.83;;
32501;SDS011;18952;52.516;13.460;2023-05-19T09:47:25;7.10;;;1.87;;
32501;SDS011;18952;52.516;13.460;2023-05-19T09:49:52;9.10;;;2.25;;
32501;SDS011;18952;52.516;13.460;2023-05-19T09:52:19;4.80;;;2.03;;
32501;SDS011;18952;52.516;13.460;2023-05-19T09:54:46;5.60;;;2.30;;
32501;SDS011;18952;52.516;13.460;2023-05-19T09:57:17;4.13;;;2.03;;
32501;SDS011;18952;52.516;13.460;2023-05-19T09:59:50;5.72;;;1.80;;
32501;SDS011;18952;52.516;13.460;2023-05-19T10:02:17;7.75;;;2.00;;
32501;SDS011;18952;52.516;13.460;2023-05-19T10:04:45;5.47;;;1.70;;
32501;SDS011;18952;52.516;13.460;2023-05-19T10:07:13;6.00;;;1.70;;
32501;SDS011;18952;52.516;13.460;2023-05-19T10:09:41;7.45;;;1.90;;
32501;SDS011;18952;52.516;13.460;2023-05-19T10:12:08;6.20;;;1.80;;
32501;SDS011;18952;52.516;13.460;2023-05-19T10:14:55;5.90;;;1.90;;
32501;SDS011;18952;52.516;13.460;2023-05-19T10:17:23;3.45;;;1.60;;
32501;SDS011;18952;52.516;13.460;2023-05-19T10:19:51;3.22;;;2.00;;
32501;SDS011;18952;52.516;13.460;2023-05-19T10:22:19;4.20;;;1.88;;
32501;SDS011;18952;52.516;13.460;2023-05-19T10:24:46;5.75;;;1.90;;
32501;SDS011;18952;52.516;13.460;2023-05-19T10:27:14;5.53;;;1.80;;
32501;SDS011;18952;52.516;13.460;2023-05-19T10:29:53;7.85;;;1.80;;
32501;SDS011;18952;52.516;13.460;2023-05-19T10:32:29;5.55;;;2.00;;
32501;SDS011;18952;52.516;13.460;2023-05-19T10:43:26;7.60;;;2.13;;
32501;SDS011;18952;52.516;13.460;2023-05-19T10:46:15;7.10;;;2.10;;
32501;SDS011;18952;52.516;13.460;2023-05-19T10:48:43;6.00;;;2.03;;
32501;SDS011;18952;52.516;13.460;2023-05-19T10:51:13;3.83;;;1.83;;
32501;SDS011;18952;52.516;13.460;2023-05-19T10:53:49;5.05;;;1.92;;
32501;SDS011;18952;52.516;13.460;2023-05-19T10:56:31;3.83;;;1.35;;
32501;SDS011;18952;52.516;13.460;2023-05-19T10:59:07;4.07;;;2.03;;
32501;SDS011;18952;52.516;13.460;2023-05-19T11:02:04;5.55;;;1.73;;
32501;SDS011;18952;52.516;13.460;2023-05-19T11:04:48;10.55;;;1.60;;
32501;SDS011;18952;52.516;13.460;2023-05-19T11:07:17;7.40;;;2.20;;
32501;SDS011;18952;52.516;13.460;2023-05-19T11:09:51;5.75;;;1.75;;
32501;SDS011;18952;52.516;13.460;2023-05-19T11:12:23;8.40;;;1.52;;
32501;SDS011;18952;52.516;13.460;2023-05-19T11:14:51;7.95;;;2.28;;
32501;SDS011;18952;52.516;13.460;2023-05-19T11:17:18;3.50;;;1.88;;
32501;SDS011;18952;52.516;13.460;2023-05-19T11:19:52;6.45;;;1.80;;
32501;SDS011;18952;52.516;13.460;2023-05-19T11:22:28;4.43;;;1.90;;
32501;SDS011;18952;52.516;13.460;2023-05-19T11:24:59;4.50;;;1.52;;
32501;SDS011;18952;52.516;13.460;2023-05-19T11:27:27;4.15;;;1.48;;
32501;SDS011;18952;52.516;13.460;2023-05-19T11:29:59;6.05;;;1.80;;
32501;SDS011;18952;52.516;13.460;2023-05-19T11:32:33;4.45;;;1.42;;
32501;SDS011;18952;52.516;13.460;2023-05-19T11:35:01;2.92;;;1.80;;
32501;SDS011;18952;52.516;13.460;2023-05-19T11:37:30;8.57;;;2.25;;
32501;SDS011;18952;52.516;13.460;2023-05-19T11:40:08;4.32;;;2.20;;
32501;SDS011;18952;52.516;13.460;2023-05-19T11:42:36;11.85;;;2.30;;
32501;SDS011;18952;52.516;13.460;2023-05-19T11:45:04;5.13;;;1.50;;
32501;SDS011;18952;52.516;13.460;2023-05-19T11:47:36;9.60;;;3.80;;
32501;SDS011;18952;52.516;13.460;2023-05-19T11:50:19;12.23;;;5.28;;
32501;SDS011;18952;52.516;13.460;2023-05-19T11:52:47;4.25;;;1.70;;
32501;SDS011;18952;52.516;13.460;2023-05-19T11:55:17;7.18;;;2.47;;
32501;SDS011;18952;52.516;13.460;2023-05-19T11:57:55;4.05;;;1.80;;
32501;SDS011;18952;52.516;13.460;2023-05-19T12:00:33;3.85;;;2.30;;
32501;SDS011;18952;52.516;13.460;2023-05-19T12:03:01;3.72;;;1.70;;
32501;SDS011;18952;52.516;13.460;2023-05-19T12:05:28;3.22;;;1.63;;
32501;SDS011;18952;52.516;13.460;2023-05-19T12:07:59;2.72;;;1.52;;
32501;SDS011;18952;52.516;13.460;2023-05-19T12:10:26;11.20;;;2.70;;
32501;SDS011;18952;52.516;13.460;2023-05-19T12:13:03;6.43;;;1.63;;
32501;SDS011;18952;52.516;13.460;2023-05-19T12:15:51;5.35;;;1.77;;
32501;SDS011;18952;52.516;13.460;2023-05-19T12:18:35;3.97;;;1.80;;
32501;SDS011;18952;52.516;13.460;2023-05-19T12:21:03;5.25;;;1.70;;
32501;SDS011;18952;52.516;13.460;2023-05-19T12:23:30;8.18;;;2.15;;
32501;SDS011;18952;52.516;13.460;2023-05-19T12:25:58;5.40;;;2.15;;
32501;SDS011;18952;52.516;13.460;2023-05-19T12:28:28;3.00;;;1.70;;
32501;SDS011;18952;52.516;13.460;2023-05-19T12:30:56;7.95;;;1.60;;
32501;SDS011;18952;52.516;13.460;2023-05-19T12:33:23;3.45;;;1.88;;
32501;SDS011;18952;52.516;13.460;2023-05-19T12:35:50;5.88;;;1.80;;
32501;SDS011;18952;52.516;13.460;2023-05-19T12:38:19;4.63;;;1.90;;
32501;SDS011;18952;52.516;13.460;2023-05-19T12:40:48;8.75;;;2.15;;
32501;SDS011;18952;52.516;13.460;2023-05-19T12:43:21;5.57;;;1.70;;
32501;SDS011;18952;52.516;13.460;2023-05-19T12:45:49;7.45;;;2.83;;
32501;SDS011;18952;52.516;13.460;2023-05-19T12:48:17;5.50;;;1.60;;
32501;SDS011;18952;52.516;13.460;2023-05-19T12:51:06;3.80;;;1.70;;
32501;SDS011;18952;52.516;13.460;2023-05-19T12:53:35;7.88;;;3.92;;
32501;SDS011;18952;52.516;13.460;2023-05-19T12:56:13;5.13;;;2.47;;
32501;SDS011;18952;52.516;13.460;2023-05-19T12:58:42;7.75;;;3.25;;
32501;SDS011;18952;52.516;13.460;2023-05-19T13:01:15;7.25;;;2.92;;
32501;SDS011;18952;52.516;13.460;2023-05-19T13:03:43;6.20;;;2.00;;
32501;SDS011;18952;52.516;13.460;2023-05-19T13:06:11;10.45;;;2.72;;
32501;SDS011;18952;52.516;13.460;2023-05-19T13:08:39;6.20;;;2.47;;
32501;SDS011;18952;52.516;13.460;2023-05-19T13:11:09;3.42;;;1.95;;
32501;SDS011;18952;52.516;13.460;2023-05-19T13:13:36;5.32;;;1.92;;
32501;SDS011;18952;52.516;13.460;2023-05-19T13:16:03;5.60;;;2.08;;
32501;SDS011;18952;52.516;13.460;2023-05-19T13:18:30;5.50;;;2.15;;
32501;SDS011;18952;52.516;13.460;2023-05-19T13:20:57;2.90;;;1.42;;
32501;SDS011;18952;52.516;13.460;2023-05-19T13:23:25;6.95;;;2.40;;
32501;SDS011;18952;52.516;13.460;2023-05-19T13:25:53;8.05;;;3.30;;
32501;SDS011;18952;52.516;13.460;2023-05-19T13:28:20;4.50;;;2.40;;
32501;SDS011;18952;52.516;13.460;2023-05-19T13:30:47;3.65;;;2.13;;
32501;SDS011;18952;52.516;13.460;2023-05-19T13:33:15;5.72;;;2.00;;
32501;SDS011;18952;52.516;13.460;2023-05-19T13:35:45;9.45;;;2.60;;
32501;SDS011;18952;52.516;13.460;2023-05-19T13:38:12;5.22;;;3.40;;
32501;SDS011;18952;52.516;13.460;2023-05-19T13:40:39;8.40;;;1.90;;
32501;SDS011;18952;52.516;13.460;2023-05-19T13:43:06;6.45;;;2.50;;
32501;SDS011;18952;52.516;13.460;2023-05-19T13:45:33;4.03;;;2.40;;
32501;SDS011;18952;52.516;13.460;2023-05-19T13:48:00;3.20;;;1.90;;
32501;SDS011;18952;52.516;13.460;2023-05-19T13:50:27;6.30;;;2.10;;
32501;SDS011;18952;52.516;13.460;2023-05-19T13:52:57;8.98;;;1.90;;
32501;SDS011;18952;52.516;13.460;2023-05-19T13:55:24;8.45;;;2.25;;
32501;SDS011;18952;52.516;13.460;2023-05-19T13:57:50;4.97;;;1.98;;
32501;SDS011;18952;52.516;13.460;2023-05-19T14:00:18;4.32;;;1.95;;
32501;SDS011;18952;52.516;13.460;2023-05-19T14:02:45;4.82;;;1.75;;
32501;SDS011;18952;52.516;13.460;2023-05-19T14:05:13;9.25;;;2.17;;
32501;SDS011;18952;52.516;13.460;2023-05-19T14:07:40;5.78;;;2.15;;
32501;SDS011;18952;52.516;13.460;2023-05-19T14:10:08;7.22;;;1.90;;
32501;SDS011;18952;52.516;13.460;2023-05-19T14:12:38;6.45;;;2.30;;
32501;SDS011;18952;52.516;13.460;2023-05-19T14:15:29;4.10;;;1.80;;
32501;SDS011;18952;52.516;13.460;2023-05-19T14:17:58;4.47;;;2.00;;
32501;SDS011;18952;52.516;13.460;2023-05-19T14:20:40;4.57;;;1.90;;
32501;SDS011;18952;52.516;13.460;2023-05-19T14:23:12;4.97;;;2.42;;
32501;SDS011;18952;52.516;13.460;2023-05-19T14:25:41;8.50;;;2.10;;
32501;SDS011;18952;52.516;13.460;2023-05-19T14:28:09;10.68;;;2.20;;
32501;SDS011;18952;52.516;13.460;2023-05-19T14:30:36;6.93;;;2.97;;
32501;SDS011;18952;52.516;13.460;2023-05-19T14:33:03;4.75;;;2.40;;
32501;SDS011;18952;52.516;13.460;2023-05-19T14:35:30;11.48;;;4.75;;
32501;SDS011;18952;52.516;13.460;2023-05-19T14:37:56;6.63;;;2.50;;
32501;SDS011;18952;52.516;13.460;2023-05-19T14:40:23;6.20;;;2.58;;
32501;SDS011;18952;52.516;13.460;2023-05-19T14:42:50;7.80;;;2.00;;
32501;SDS011;18952;52.516;13.460;2023-05-19T14:45:17;3.55;;;2.17;;
32501;SDS011;18952;52.516;13.460;2023-05-19T14:47:44;9.95;;;3.97;;
32501;SDS011;18952;52.516;13.460;2023-05-19T14:50:14;13.57;;;2.30;;
32501;SDS011;18952;52.516;13.460;2023-05-19T14:52:41;43.70;;;3.40;;
32501;SDS011;18952;52.516;13.460;2023-05-19T14:55:12;7.22;;;2.33;;
32501;SDS011;18952;52.516;13.460;2023-05-19T14:57:43;5.38;;;2.80;;
32501;SDS011;18952;52.516;13.460;2023-05-19T15:00:10;3.58;;;2.20;;
32501;SDS011;18952;52.516;13.460;2023-05-19T15:02:38;4.38;;;3.15;;
32501;SDS011;18952;52.516;13.460;2023-05-19T15:05:06;9.35;;;2.35;;
32501;SDS011;18952;52.516;13.460;2023-05-19T15:07:34;4.90;;;2.30;;
32501;SDS011;18952;52.516;13.460;2023-05-19T15:10:01;7.75;;;2.03;;